Ancramdale, New York
Current Conditions -  °F | °C
As of 5:53 AM on Saturday 01 Nov 2014 (Local Time) from KPOU Reporting Station
Light Rain Light Rain  
Wind Chill: 44°   Ceiling: 4500
Heat Index: 44°   Visibility: 8mi
Dew Point: 41°   Wind: 3mph
Humidity: 89%   Direction: 10°N
Pressure: 29.9"   Gusts: NA
Location:  42.02°N, 73.59°W
Report Text: KPOU 010953Z AUTO 01003KT 8SM -RA OVC045 07/05 A2990 RMK AO2 RAB09E21B40 SLP123 P0001 T00670050 TSNO
Loading
Personal Weather Stations






























Interactive Weather Map
Tropical Storm Tracking
New forecast layout! Learn more

10-Day Weather Forecast

Advertisements
Track Severe Weather on mobile